LPSO weather

Ponte de Sor Airport
Ponte de Sôr, Portalegre District, Portugal

Public forecast

Using degrees Celsius for public forecast. Weather courtesy of forecast.io.

Closest aviation weather report (METAR) to Ponte de Sor Airport

Report is more than 6 hours old.

Closest report is Tancos Airbase, 21.3 nm (39.5 km) NW. Retrieved 2009/08/31 14:00 UTC (10 years ago):

LPTN 311400Z /////KT CAVOK 35/19 Q1011 RMK ESTMD WND 28005KT

Closest aviation forecast (TAF) to Ponte de Sor Airport

Forecast is more than 12 hours old.

Closest forecast is Alverca Air Base, 49.5 nm (91.7 km) WSW. Retrieved 2019/11/26 12:00 UTC (13 days ago):

TAF LPAR 261111Z 2612/2621 22015G25KT 3000 RADZ BR SCT005 BKN007 BECMG 2613/2615 26012KT 9999 NSW SCT012